Time;durP1;ratioP1;P1;durP2;ratioP2;P2;SDS_P1;SDS_P2;PMS_P1;PMS_P2;Temp;Humidity;BMP_temperature;BMP_pressure;BME280_temperature;BME280_humidity;BME280_pressure;Samples;Min_cycle;Max_cycle;Signal;HPM_P1;HPM_P2
2022/02/21 00:00:44;;;;;;;1.47;0.60;;;;;;;;;;5073084;28;20024;-67
2022/02/21 00:03:11;;;;;;;2.33;0.80;;;;;;;;;;5086964;28;20499;-67
2022/02/21 00:05:38;;;;;;;2.43;0.70;;;;;;;;;;5073958;28;20064;-68
2022/02/21 00:08:05;;;;;;;2.63;0.40;;;;;;;;;;5079087;28;20561;-68
2022/02/21 00:10:31;;;;;;;1.90;0.70;;;;;;;;;;5073786;28;20027;-68
2022/02/21 00:12:58;;;;;;;3.80;0.93;;;;;;;;;;5078202;28;20573;-68
2022/02/21 00:15:25;;;;;;;0.97;0.40;;;;;;;;;;5069076;28;20020;-68
2022/02/21 00:17:52;;;;;;;3.40;0.67;;;;;;;;;;5073085;28;20028;-67
2022/02/21 00:20:19;;;;;;;2.30;0.60;;;;;;;;;;5073044;28;20055;-68
2022/02/21 00:22:46;;;;;;;1.00;0.50;;;;;;;;;;5082892;28;20534;-67
2022/02/21 00:25:13;;;;;;;0.87;0.40;;;;;;;;;;5093470;28;20093;-67
2022/02/21 00:27:39;;;;;;;0.37;0.33;;;;;;;;;;5091517;28;20035;-68
2022/02/21 00:30:06;;;;;;;1.23;0.50;;;;;;;;;;5087600;28;20059;-67
2022/02/21 00:32:33;;;;;;;4.90;0.80;;;;;;;;;;5083112;28;20032;-67
2022/02/21 00:35:00;;;;;;;0.83;0.40;;;;;;;;;;5076873;28;20032;-67
2022/02/21 00:37:27;;;;;;;1.80;0.40;;;;;;;;;;5087797;28;20043;-67
2022/02/21 00:39:53;;;;;;;0.67;0.30;;;;;;;;;;5092838;28;20028;-67
2022/02/21 00:42:22;;;;;;;0.90;0.40;;;;;;;;;;5092753;28;20099;-67
2022/02/21 00:44:51;;;;;;;1.07;0.40;;;;;;;;;;5092729;28;20020;-67
2022/02/21 00:47:18;;;;;;;0.40;0.20;;;;;;;;;;5079093;28;20024;-67
2022/02/21 00:49:45;;;;;;;2.87;0.63;;;;;;;;;;5083618;28;20088;-67
2022/02/21 00:52:11;;;;;;;1.10;0.40;;;;;;;;;;5086832;28;20135;-67
2022/02/21 00:54:38;;;;;;;0.27;0.20;;;;;;;;;;5087611;28;20111;-67
2022/02/21 00:57:05;;;;;;;1.07;0.30;;;;;;;;;;5087109;28;20047;-67
2022/02/21 00:59:32;;;;;;;0.10;0.10;;;;;;;;;;5080154;28;20028;-67
2022/02/21 01:01:58;;;;;;;2.77;0.30;;;;;;;;;;5074444;28;20031;-68
2022/02/21 01:04:25;;;;;;;3.30;0.10;;;;;;;;;;5091093;28;20099;-68
2022/02/21 01:06:52;;;;;;;0.20;0.20;;;;;;;;;;5080090;28;20497;-68
2022/02/21 01:09:18;;;;;;;0.10;0.10;;;;;;;;;;5092053;28;20347;-67
2022/02/21 01:11:45;;;;;;;0.43;0.20;;;;;;;;;;5084750;28;20032;-67
2022/02/21 01:14:12;;;;;;;0.70;0.30;;;;;;;;;;5066721;28;20035;-67
2022/02/21 01:16:38;;;;;;;2.30;0.33;;;;;;;;;;5067957;28;20035;-67
2022/02/21 01:19:05;;;;;;;1.60;0.17;;;;;;;;;;5066902;28;20032;-67
2022/02/21 01:21:32;;;;;;;0.10;0.00;;;;;;;;;;5066478;28;20056;-68
2022/02/21 01:23:59;;;;;;;0.70;0.23;;;;;;;;;;5091297;28;20526;-67
2022/02/21 01:26:26;;;;;;;0.20;0.20;;;;;;;;;;5092168;28;20440;-67
2022/02/21 01:28:53;;;;;;;0.53;0.23;;;;;;;;;;5092119;28;20367;-67
2022/02/21 01:31:20;;;;;;;0.33;0.20;;;;;;;;;;5079735;28;20045;-68
2022/02/21 01:33:47;;;;;;;1.43;0.30;;;;;;;;;;5083683;28;20035;-67
2022/02/21 01:36:13;;;;;;;1.63;0.30;;;;;;;;;;5086871;28;20035;-67
2022/02/21 01:38:40;;;;;;;4.43;0.40;;;;;;;;;;5086284;28;20394;-67
2022/02/21 01:41:07;;;;;;;0.63;0.10;;;;;;;;;;5077050;28;20033;-67
2022/02/21 01:43:34;;;;;;;0.90;0.30;;;;;;;;;;5066376;28;20028;-67
2022/02/21 01:46:01;;;;;;;0.20;0.10;;;;;;;;;;5070872;28;20082;-67
2022/02/21 01:48:28;;;;;;;0.97;0.53;;;;;;;;;;5075506;28;20031;-66
2022/02/21 01:50:54;;;;;;;2.00;0.27;;;;;;;;;;5091717;28;20115;-67
2022/02/21 01:53:21;;;;;;;1.87;0.43;;;;;;;;;;5091915;28;20032;-66
2022/02/21 01:55:50;;;;;;;0.53;0.10;;;;;;;;;;5091672;28;20485;-67
2022/02/21 01:58:16;;;;;;;0.70;0.30;;;;;;;;;;5069932;28;20037;-67
2022/02/21 02:00:43;;;;;;;0.50;0.30;;;;;;;;;;5084528;28;20438;-67
2022/02/21 02:03:10;;;;;;;9.57;1.30;;;;;;;;;;5076639;28;20027;-67
2022/02/21 02:05:37;;;;;;;0.40;0.30;;;;;;;;;;5066420;28;20029;-67
2022/02/21 02:08:03;;;;;;;1.17;0.27;;;;;;;;;;5089800;28;20392;-66
2022/02/21 02:10:31;;;;;;;0.60;0.37;;;;;;;;;;5091253;28;20036;-67
2022/02/21 02:12:57;;;;;;;0.23;0.10;;;;;;;;;;5074529;28;20017;-67
2022/02/21 02:15:25;;;;;;;2.20;0.30;;;;;;;;;;5095650;28;20020;-67
2022/02/21 02:17:52;;;;;;;0.40;0.13;;;;;;;;;;5095423;28;20039;-66
2022/02/21 02:20:19;;;;;;;0.30;0.20;;;;;;;;;;5075963;28;20048;-67
2022/02/21 02:22:46;;;;;;;0.60;0.20;;;;;;;;;;5079151;28;20025;-66
2022/02/21 02:25:13;;;;;;;0.20;0.10;;;;;;;;;;5090274;28;20516;-66
2022/02/21 02:27:41;;;;;;;2.93;0.50;;;;;;;;;;5083813;28;20379;-67
2022/02/21 02:30:08;;;;;;;1.07;0.37;;;;;;;;;;5073230;28;20021;-66
2022/02/21 02:32:35;;;;;;;1.00;0.40;;;;;;;;;;5078544;28;20383;-66
2022/02/21 02:35:01;;;;;;;3.43;0.50;;;;;;;;;;5094780;28;20073;-66
2022/02/21 02:37:28;;;;;;;1.27;0.47;;;;;;;;;;5088801;28;20028;-66
2022/02/21 02:39:57;;;;;;;2.13;0.63;;;;;;;;;;5074987;28;20028;-66
2022/02/21 02:42:24;;;;;;;0.93;0.40;;;;;;;;;;5074247;28;20086;-68
2022/02/21 02:44:51;;;;;;;1.00;0.47;;;;;;;;;;5089617;28;20190;-69
2022/02/21 02:47:18;;;;;;;2.50;0.57;;;;;;;;;;5089796;28;20451;-68
2022/02/21 02:49:44;;;;;;;0.80;0.30;;;;;;;;;;5083607;28;20433;-68
2022/02/21 02:52:11;;;;;;;0.77;0.33;;;;;;;;;;5072055;28;20471;-68
2022/02/21 02:54:38;;;;;;;0.73;0.40;;;;;;;;;;5074922;28;20384;-68
2022/02/21 02:57:05;;;;;;;1.53;0.60;;;;;;;;;;5074781;28;20107;-69
2022/02/21 02:59:31;;;;;;;1.20;0.30;;;;;;;;;;5086026;28;20026;-68
2022/02/21 03:01:58;;;;;;;1.47;0.30;;;;;;;;;;5085301;28;20031;-67
2022/02/21 03:04:25;;;;;;;0.87;0.50;;;;;;;;;;5090596;28;20530;-66
2022/02/21 03:06:52;;;;;;;0.60;0.23;;;;;;;;;;5088944;28;20097;-66
2022/02/21 03:09:18;;;;;;;2.50;0.40;;;;;;;;;;5089299;28;20016;-66
2022/02/21 03:11:45;;;;;;;0.50;0.30;;;;;;;;;;5089384;28;20387;-66
2022/02/21 03:14:12;;;;;;;1.23;0.40;;;;;;;;;;5091011;28;20032;-66
2022/02/21 03:16:39;;;;;;;1.37;0.40;;;;;;;;;;5092947;28;20387;-66
2022/02/21 03:19:05;;;;;;;1.57;0.50;;;;;;;;;;5074476;28;20387;-65
2022/02/21 03:21:32;;;;;;;6.77;0.93;;;;;;;;;;5082356;28;20028;-65
2022/02/21 03:23:59;;;;;;;3.33;0.60;;;;;;;;;;5094121;28;20162;-65
2022/02/21 03:26:26;;;;;;;6.33;0.63;;;;;;;;;;5082061;28;20035;-70
2022/02/21 03:28:52;;;;;;;2.63;0.50;;;;;;;;;;5062344;28;20103;-70
2022/02/21 03:31:19;;;;;;;2.53;0.57;;;;;;;;;;5057707;28;20092;-66
2022/02/21 03:33:46;;;;;;;4.27;0.50;;;;;;;;;;5063558;28;20024;-68
2022/02/21 03:36:13;;;;;;;1.17;0.50;;;;;;;;;;5074647;28;20051;-64
2022/02/21 03:38:40;;;;;;;3.83;0.60;;;;;;;;;;5074036;28;20387;-65
2022/02/21 03:41:07;;;;;;;2.77;0.60;;;;;;;;;;5053949;28;20057;-72
2022/02/21 03:43:33;;;;;;;0.87;0.50;;;;;;;;;;5060056;28;20027;-72
2022/02/21 03:46:00;;;;;;;3.57;0.87;;;;;;;;;;5073553;28;20375;-73
2022/02/21 03:48:27;;;;;;;1.63;0.60;;;;;;;;;;5071801;28;20029;-72
2022/02/21 03:50:54;;;;;;;4.40;0.70;;;;;;;;;;5068447;28;20036;-72
2022/02/21 03:53:21;;;;;;;2.67;0.50;;;;;;;;;;5068531;28;20028;-72
2022/02/21 03:55:48;;;;;;;2.20;0.83;;;;;;;;;;5068601;28;20016;-72
2022/02/21 03:58:15;;;;;;;2.73;0.57;;;;;;;;;;5073457;28;20013;-73
2022/02/21 04:00:41;;;;;;;3.73;0.50;;;;;;;;;;5073165;28;20349;-72
2022/02/21 04:03:08;;;;;;;4.37;0.70;;;;;;;;;;5072955;28;20114;-73
2022/02/21 04:05:35;;;;;;;1.07;0.43;;;;;;;;;;5073527;28;20029;-72
2022/02/21 04:08:02;;;;;;;1.67;0.40;;;;;;;;;;5073393;28;20032;-72
2022/02/21 04:10:28;;;;;;;0.93;0.60;;;;;;;;;;5071819;28;20032;-72
2022/02/21 04:12:55;;;;;;;1.20;0.53;;;;;;;;;;5068160;28;20462;-72
2022/02/21 04:15:22;;;;;;;1.47;0.60;;;;;;;;;;5067991;28;20032;-72
2022/02/21 04:17:49;;;;;;;0.57;0.37;;;;;;;;;;5067956;28;20081;-73
2022/02/21 04:20:20;;;;;;;2.33;0.53;;;;;;;;;;5068994;28;20147;-72
2022/02/21 04:22:46;;;;;;;1.03;0.60;;;;;;;;;;5073308;28;20066;-72
2022/02/21 04:25:14;;;;;;;1.83;0.50;;;;;;;;;;5081071;28;20551;-72
2022/02/21 04:27:50;;;;;;;0.47;0.40;;;;;;;;;;5079416;28;20028;-72
2022/02/21 04:30:18;;;;;;;1.27;0.60;;;;;;;;;;5092796;28;20028;-72
2022/02/21 04:32:47;;;;;;;2.17;0.80;;;;;;;;;;5091192;28;20032;-72
2022/02/21 04:35:14;;;;;;;1.50;0.80;;;;;;;;;;5084891;28;20038;-72
2022/02/21 04:37:41;;;;;;;6.27;1.00;;;;;;;;;;5068653;28;20515;-72
2022/02/21 04:40:10;;;;;;;1.57;0.60;;;;;;;;;;5067769;28;20479;-72
2022/02/21 04:42:37;;;;;;;2.77;0.60;;;;;;;;;;5068501;28;20032;-72
2022/02/21 04:45:04;;;;;;;0.83;0.50;;;;;;;;;;5072636;28;20079;-72
2022/02/21 04:47:31;;;;;;;6.23;0.93;;;;;;;;;;5072706;28;20032;-72
2022/02/21 04:49:58;;;;;;;1.13;0.70;;;;;;;;;;5084588;28;20543;-72
2022/02/21 04:52:25;;;;;;;1.43;0.60;;;;;;;;;;5076822;28;20090;-72
2022/02/21 04:54:51;;;;;;;0.97;0.50;;;;;;;;;;5071184;28;20025;-72
2022/02/21 04:57:18;;;;;;;1.60;0.70;;;;;;;;;;5081597;28;20024;-71
2022/02/21 04:59:45;;;;;;;1.50;0.80;;;;;;;;;;5074363;28;20032;-72
2022/02/21 05:02:11;;;;;;;1.33;0.67;;;;;;;;;;5066889;28;20044;-72
2022/02/21 05:04:38;;;;;;;1.30;0.53;;;;;;;;;;5069000;28;20021;-72
2022/02/21 05:07:05;;;;;;;4.67;0.80;;;;;;;;;;5072168;28;20028;-72
2022/02/21 05:09:31;;;;;;;1.20;0.60;;;;;;;;;;5072349;28;20371;-72
2022/02/21 05:11:58;;;;;;;1.97;0.90;;;;;;;;;;5081416;28;20085;-72
2022/02/21 05:14:25;;;;;;;2.07;0.83;;;;;;;;;;5075159;28;20016;-71
2022/02/21 05:16:53;;;;;;;1.70;0.50;;;;;;;;;;5070872;28;20439;-72
2022/02/21 05:19:20;;;;;;;0.63;0.40;;;;;;;;;;5067067;28;20027;-72
2022/02/21 05:21:46;;;;;;;1.80;0.70;;;;;;;;;;5067148;28;20043;-72
2022/02/21 05:24:13;;;;;;;2.13;0.63;;;;;;;;;;5066790;28;20123;-66
2022/02/21 05:26:40;;;;;;;2.43;0.70;;;;;;;;;;5067038;28;20029;-66
2022/02/21 05:29:07;;;;;;;1.87;0.60;;;;;;;;;;5090158;28;20096;-67
2022/02/21 05:31:33;;;;;;;3.53;1.00;;;;;;;;;;5085635;28;20047;-68
2022/02/21 05:34:00;;;;;;;1.47;0.60;;;;;;;;;;5070907;28;20052;-66
2022/02/21 05:36:27;;;;;;;1.97;0.73;;;;;;;;;;5070446;28;20056;-67
2022/02/21 05:38:54;;;;;;;2.83;0.70;;;;;;;;;;5070060;28;20022;-66
2022/02/21 05:41:20;;;;;;;1.57;0.70;;;;;;;;;;5066362;28;20056;-66
2022/02/21 05:43:47;;;;;;;2.93;0.67;;;;;;;;;;5066636;28;20033;-67
2022/02/21 05:46:13;;;;;;;4.60;0.73;;;;;;;;;;5066686;28;20040;-67
2022/02/21 05:48:40;;;;;;;4.27;0.80;;;;;;;;;;5067232;28;20830;-66
2022/02/21 05:51:07;;;;;;;1.43;0.60;;;;;;;;;;5082943;28;20099;-67
2022/02/21 05:53:34;;;;;;;3.87;0.63;;;;;;;;;;5076027;28;20031;-66
2022/02/21 05:56:00;;;;;;;2.40;0.80;;;;;;;;;;5075890;28;20036;-66
2022/02/21 05:58:27;;;;;;;2.90;1.10;;;;;;;;;;5091662;28;20304;-67
2022/02/21 06:00:55;;;;;;;3.27;1.13;;;;;;;;;;5095945;28;20021;-66
2022/02/21 06:03:22;;;;;;;1.30;0.77;;;;;;;;;;5090750;28;20410;-67
2022/02/21 06:05:49;;;;;;;1.70;0.70;;;;;;;;;;5070704;28;20031;-67
2022/02/21 06:08:15;;;;;;;2.97;1.10;;;;;;;;;;5070463;28;20073;-66
2022/02/21 06:10:42;;;;;;;1.53;0.63;;;;;;;;;;5070072;28;20530;-66
2022/02/21 06:13:09;;;;;;;3.63;0.77;;;;;;;;;;5075418;28;20337;-66
2022/02/21 06:15:36;;;;;;;1.13;0.50;;;;;;;;;;5075291;28;20740;-66
2022/02/21 06:18:02;;;;;;;4.50;0.80;;;;;;;;;;5075662;28;20752;-66
2022/02/21 06:20:30;;;;;;;1.37;0.80;;;;;;;;;;5090882;28;20260;-66
2022/02/21 06:22:56;;;;;;;6.77;0.67;;;;;;;;;;5095359;28;20280;-66
2022/02/21 06:25:23;;;;;;;1.60;0.70;;;;;;;;;;5090110;28;20321;-66
2022/02/21 06:27:50;;;;;;;3.30;0.97;;;;;;;;;;5078576;28;20289;-66
2022/02/21 06:30:17;;;;;;;4.03;0.70;;;;;;;;;;5070117;28;20277;-66
2022/02/21 06:32:43;;;;;;;7.00;0.70;;;;;;;;;;5069647;28;20293;-66
2022/02/21 06:35:14;;;;;;;3.47;0.77;;;;;;;;;;5076152;28;20269;-67
2022/02/21 06:37:46;;;;;;;1.40;0.57;;;;;;;;;;5095131;28;20335;-66
2022/02/21 06:40:13;;;;;;;1.20;0.50;;;;;;;;;;5095157;28;20669;-66
2022/02/21 06:42:40;;;;;;;2.97;0.70;;;;;;;;;;5094964;28;20280;-66
2022/02/21 06:45:07;;;;;;;2.00;0.50;;;;;;;;;;5095073;28;20261;-66
2022/02/21 06:47:34;;;;;;;3.50;1.43;;;;;;;;;;5090107;28;20261;-67
2022/02/21 06:50:04;;;;;;;5.67;1.83;;;;;;;;;;5088019;28;20359;-66
2022/02/21 06:52:31;;;;;;;2.57;0.80;;;;;;;;;;5089502;28;20802;-66
2022/02/21 06:54:59;;;;;;;1.30;0.80;;;;;;;;;;5089467;28;20264;-67
2022/02/21 06:57:25;;;;;;;0.83;0.60;;;;;;;;;;5085287;28;20727;-66
2022/02/21 06:59:52;;;;;;;1.97;0.80;;;;;;;;;;5082387;28;20359;-66
2022/02/21 07:02:19;;;;;;;3.07;0.90;;;;;;;;;;5081883;28;20611;-66
2022/02/21 07:04:45;;;;;;;2.23;0.80;;;;;;;;;;5091068;28;20269;-66
2022/02/21 07:07:12;;;;;;;2.07;0.93;;;;;;;;;;5074615;28;20271;-66
2022/02/21 07:09:39;;;;;;;1.60;0.70;;;;;;;;;;5073291;28;20292;-66
2022/02/21 07:12:06;;;;;;;2.83;1.20;;;;;;;;;;5089003;28;20298;-66
2022/02/21 07:14:32;;;;;;;2.33;1.00;;;;;;;;;;5078176;28;20331;-66
2022/02/21 07:16:59;;;;;;;2.00;0.93;;;;;;;;;;5069110;28;20277;-66
2022/02/21 07:19:26;;;;;;;1.53;0.80;;;;;;;;;;5073578;28;20261;-67
2022/02/21 07:21:53;;;;;;;1.23;0.63;;;;;;;;;;5074651;28;20593;-66
2022/02/21 07:24:19;;;;;;;1.97;0.80;;;;;;;;;;5074319;28;20340;-66
2022/02/21 07:26:46;;;;;;;2.07;0.80;;;;;;;;;;5094139;28;20344;-66
2022/02/21 07:29:13;;;;;;;2.10;0.93;;;;;;;;;;5090137;28;20322;-66
2022/02/21 07:31:39;;;;;;;2.77;1.13;;;;;;;;;;5069839;28;20284;-66
2022/02/21 07:34:07;;;;;;;1.77;0.90;;;;;;;;;;5083742;28;20295;-66
2022/02/21 07:36:34;;;;;;;1.57;0.70;;;;;;;;;;5088344;28;20273;-66
2022/02/21 07:39:04;;;;;;;1.77;0.83;;;;;;;;;;5088972;28;20257;-66
2022/02/21 07:41:30;;;;;;;2.37;0.73;;;;;;;;;;5087342;28;20330;-66
2022/02/21 07:43:57;;;;;;;0.93;0.70;;;;;;;;;;5074028;28;20782;-66
2022/02/21 07:46:24;;;;;;;1.87;0.60;;;;;;;;;;5093748;28;20280;-67
2022/02/21 07:48:50;;;;;;;0.60;0.47;;;;;;;;;;5092278;28;20260;-66
2022/02/21 07:51:17;;;;;;;1.87;0.53;;;;;;;;;;5093006;28;20286;-66
2022/02/21 07:53:44;;;;;;;2.47;0.70;;;;;;;;;;5090053;28;20257;-66
2022/02/21 07:56:10;;;;;;;2.47;0.80;;;;;;;;;;5088295;28;20261;-66
2022/02/21 07:58:37;;;;;;;2.77;0.40;;;;;;;;;;5088447;28;20257;-66
2022/02/21 08:01:04;;;;;;;1.07;0.57;;;;;;;;;;5088178;28;20265;-66
2022/02/21 08:03:30;;;;;;;0.63;0.30;;;;;;;;;;5073905;28;20297;-67
2022/02/21 08:05:57;;;;;;;0.63;0.37;;;;;;;;;;5078214;28;20303;-67
2022/02/21 08:08:24;;;;;;;1.70;0.40;;;;;;;;;;5093805;28;20308;-66
2022/02/21 08:10:50;;;;;;;1.23;0.30;;;;;;;;;;5077341;28;20812;-66
2022/02/21 08:13:17;;;;;;;1.03;0.47;;;;;;;;;;5074675;28;20254;-66
2022/02/21 08:15:44;;;;;;;1.57;0.73;;;;;;;;;;5078038;28;20291;-66
2022/02/21 08:18:11;;;;;;;2.47;0.87;;;;;;;;;;5075607;28;20292;-65
2022/02/21 08:20:37;;;;;;;1.07;0.50;;;;;;;;;;5068866;28;20352;-66
2022/02/21 08:23:04;;;;;;;2.27;0.63;;;;;;;;;;5047597;28;20329;-66
2022/02/21 08:25:31;;;;;;;0.57;0.50;;;;;;;;;;5068988;28;20253;-66
2022/02/21 08:27:58;;;;;;;0.93;0.57;;;;;;;;;;5093092;28;20272;-66
2022/02/21 08:30:25;;;;;;;1.00;0.57;;;;;;;;;;5090353;28;20657;-66
2022/02/21 08:32:52;;;;;;;1.70;0.63;;;;;;;;;;5079088;28;20333;-66
2022/02/21 08:35:19;;;;;;;2.57;0.40;;;;;;;;;;5092823;28;20256;-66
2022/02/21 08:37:46;;;;;;;2.50;0.50;;;;;;;;;;5087861;28;20260;-66
2022/02/21 08:40:14;;;;;;;2.10;1.00;;;;;;;;;;5086063;28;20344;-65
2022/02/21 08:42:41;;;;;;;2.37;0.70;;;;;;;;;;5086124;28;20257;-66
2022/02/21 08:45:10;;;;;;;0.80;0.50;;;;;;;;;;5070185;28;20269;-66
2022/02/21 08:47:37;;;;;;;0.97;0.33;;;;;;;;;;5088133;28;20253;-66
2022/02/21 08:50:04;;;;;;;2.50;0.60;;;;;;;;;;5072593;28;20265;-66
2022/02/21 08:52:32;;;;;;;7.27;1.33;;;;;;;;;;5087401;28;20290;-66
2022/02/21 08:54:58;;;;;;;1.33;0.50;;;;;;;;;;5092554;28;20340;-66
2022/02/21 08:57:27;;;;;;;1.67;0.40;;;;;;;;;;5092746;28;20344;-66
2022/02/21 08:59:54;;;;;;;4.63;0.47;;;;;;;;;;5089848;28;20758;-65
2022/02/21 09:02:20;;;;;;;1.37;0.60;;;;;;;;;;5084241;28;20619;-65
2022/02/21 09:04:47;;;;;;;0.97;0.30;;;;;;;;;;5073317;28;20687;-66
2022/02/21 09:07:14;;;;;;;4.10;0.67;;;;;;;;;;5084721;28;20734;-67
2022/02/21 09:09:40;;;;;;;3.30;0.60;;;;;;;;;;5088992;28;20777;-66
2022/02/21 09:12:07;;;;;;;0.37;0.30;;;;;;;;;;5090825;28;20284;-66
2022/02/21 09:14:34;;;;;;;1.50;0.40;;;;;;;;;;5092265;28;20314;-65
2022/02/21 09:17:01;;;;;;;8.93;3.70;;;;;;;;;;5087342;28;20319;-65
2022/02/21 09:19:28;;;;;;;0.27;0.27;;;;;;;;;;5072226;28;20284;-66
2022/02/21 09:21:54;;;;;;;1.67;0.50;;;;;;;;;;5069622;28;20324;-67
2022/02/21 09:24:21;;;;;;;0.70;0.20;;;;;;;;;;5067692;28;20273;-66
2022/02/21 09:26:48;;;;;;;1.17;0.40;;;;;;;;;;5066859;28;20284;-65
2022/02/21 09:29:14;;;;;;;2.10;0.50;;;;;;;;;;5066960;28;20262;-66
2022/02/21 09:31:41;;;;;;;0.77;0.50;;;;;;;;;;5070793;28;20869;-65
2022/02/21 09:34:08;;;;;;;2.20;0.40;;;;;;;;;;5086081;28;20268;-65
2022/02/21 09:36:36;;;;;;;3.87;0.60;;;;;;;;;;5080874;28;20252;-65
2022/02/21 09:39:03;;;;;;;1.13;0.40;;;;;;;;;;5090058;28;20280;-66
2022/02/21 09:41:30;;;;;;;1.37;0.40;;;;;;;;;;5092042;28;20269;-66
2022/02/21 09:43:58;;;;;;;0.97;0.60;;;;;;;;;;5070420;28;20273;-66
2022/02/21 09:46:29;;;;;;;0.83;0.57;;;;;;;;;;5066712;28;20304;-65
2022/02/21 09:48:57;;;;;;;0.80;0.47;;;;;;;;;;5066716;28;20327;-65
2022/02/21 09:51:24;;;;;;;0.73;0.50;;;;;;;;;;5066579;28;20301;-65
2022/02/21 09:53:51;;;;;;;1.63;0.50;;;;;;;;;;5069267;28;20257;-66
2022/02/21 09:56:17;;;;;;;4.10;1.17;;;;;;;;;;5071713;28;20362;-66
2022/02/21 09:58:44;;;;;;;3.67;0.37;;;;;;;;;;5071935;28;20259;-66
2022/02/21 10:01:11;;;;;;;1.07;0.40;;;;;;;;;;5072980;28;20747;-65
2022/02/21 10:03:37;;;;;;;5.83;1.63;;;;;;;;;;5073103;28;20257;-65
2022/02/21 10:06:30;;;;;;;2.67;0.40;;;;;;;;;;5089683;28;20265;-66
2022/02/21 10:09:03;;;;;;;1.10;0.50;;;;;;;;;;5071449;28;20289;-65
2022/02/21 10:11:32;;;;;;;0.67;0.40;;;;;;;;;;5066368;28;20350;-65
2022/02/21 10:14:03;;;;;;;1.13;0.60;;;;;;;;;;5066328;28;20281;-65
2022/02/21 10:16:39;;;;;;;1.27;0.47;;;;;;;;;;5068668;28;20280;-65
2022/02/21 10:19:23;;;;;;;1.10;0.47;;;;;;;;;;5071549;28;20316;-65
2022/02/21 10:22:01;;;;;;;0.63;0.40;;;;;;;;;;5088603;28;20770;-65
2022/02/21 10:24:47;;;;;;;0.53;0.40;;;;;;;;;;5089804;28;20322;-65
2022/02/21 10:27:13;;;;;;;;;;;;;;;;;;5092040;28;20260;-65
2022/02/21 10:29:46;;;;;;;0.60;0.60;;;;;;;;;;5086760;28;19904;-65
2022/02/21 18:17:46;;;;;;;3.80;1.75;;;;;;;;;;5056986;28;20505;-67
2022/02/21 18:20:13;;;;;;;4.55;1.73;;;;;;;;;;5058048;28;20056;-67
2022/02/21 18:22:40;;;;;;;3.77;1.40;;;;;;;;;;5056019;28;20028;-67
2022/02/21 18:25:07;;;;;;;5.07;1.50;;;;;;;;;;5052531;28;20495;-67
2022/02/21 18:27:33;;;;;;;3.63;1.67;;;;;;;;;;5052822;28;20451;-67
2022/02/21 18:30:00;;;;;;;7.80;2.10;;;;;;;;;;5052871;28;20074;-66
2022/02/21 18:32:27;;;;;;;3.13;1.67;;;;;;;;;;5054680;28;20025;-67
2022/02/21 18:34:54;;;;;;;7.07;2.40;;;;;;;;;;5058381;28;20093;-67
2022/02/21 18:37:21;;;;;;;8.07;1.90;;;;;;;;;;5057466;28;20032;-66
2022/02/21 18:39:47;;;;;;;4.97;2.05;;;;;;;;;;5057872;28;20048;-66
2022/02/21 18:42:14;;;;;;;3.83;1.60;;;;;;;;;;5058243;28;20100;-67
2022/02/21 18:44:41;;;;;;;3.67;1.92;;;;;;;;;;5056025;28;20029;-67
2022/02/21 18:47:08;;;;;;;4.50;2.30;;;;;;;;;;5052264;28;20033;-66
2022/02/21 18:49:35;;;;;;;3.92;1.80;;;;;;;;;;5052919;28;20470;-67
2022/02/21 18:52:02;;;;;;;5.90;1.65;;;;;;;;;;5052788;28;20041;-67
2022/02/21 18:54:28;;;;;;;4.53;1.77;;;;;;;;;;5054188;28;20028;-67
2022/02/21 18:56:55;;;;;;;4.88;2.00;;;;;;;;;;5053228;28;20418;-66
2022/02/21 18:59:28;;;;;;;14.38;3.78;;;;;;;;;;5054994;28;20029;-67
2022/02/21 19:01:55;;;;;;;6.03;2.25;;;;;;;;;;5054986;28;20025;-67
2022/02/21 19:04:22;;;;;;;4.00;2.28;;;;;;;;;;5054815;28;20071;-67
2022/02/21 19:06:49;;;;;;;10.90;2.97;;;;;;;;;;5052096;28;20057;-68
2022/02/21 19:09:15;;;;;;;10.50;3.58;;;;;;;;;;5049011;28;20048;-67
2022/02/21 19:11:42;;;;;;;7.55;2.05;;;;;;;;;;5048809;28;20040;-67
2022/02/21 19:14:09;;;;;;;7.70;2.20;;;;;;;;;;5049165;28;20446;-68
2022/02/21 19:16:36;;;;;;;7.20;2.40;;;;;;;;;;5049898;28;20017;-67
2022/02/21 19:19:04;;;;;;;6.70;2.47;;;;;;;;;;5054587;28;20083;-67
2022/02/21 19:21:31;;;;;;;5.88;2.22;;;;;;;;;;5054029;28;20091;-67
2022/02/21 19:23:57;;;;;;;5.07;2.92;;;;;;;;;;5054308;28;20051;-67
2022/02/21 19:26:24;;;;;;;5.88;3.13;;;;;;;;;;5053960;28;20040;-67
2022/02/21 19:28:51;;;;;;;7.93;3.20;;;;;;;;;;5052869;28;20033;-67
2022/02/21 19:31:19;;;;;;;9.82;2.75;;;;;;;;;;5048724;28;20480;-67
2022/02/21 19:33:46;;;;;;;8.82;2.78;;;;;;;;;;5028824;28;20041;-67
2022/02/21 19:36:15;;;;;;;10.65;3.28;;;;;;;;;;5029151;28;20021;-66
2022/02/21 19:38:44;;;;;;;8.77;2.42;;;;;;;;;;5029759;28;20029;-67
2022/02/21 19:41:10;;;;;;;2.42;1.50;;;;;;;;;;5033686;28;20017;-67
2022/02/21 19:43:37;;;;;;;4.47;1.23;;;;;;;;;;5049231;28;20021;-67
2022/02/21 19:46:04;;;;;;;2.38;1.45;;;;;;;;;;5054259;28;20052;-67
2022/02/21 19:48:31;;;;;;;6.32;1.88;;;;;;;;;;5053857;28;20031;-67
2022/02/21 19:50:57;;;;;;;5.63;1.83;;;;;;;;;;5052682;28;20018;-66
2022/02/21 19:53:24;;;;;;;7.22;1.90;;;;;;;;;;5048142;28;20029;-66
2022/02/21 19:55:51;;;;;;;3.70;1.60;;;;;;;;;;5048295;28;20445;-67
2022/02/21 19:58:18;;;;;;;3.22;1.30;;;;;;;;;;5048403;28;20079;-67
2022/02/21 20:00:44;;;;;;;3.55;1.35;;;;;;;;;;5048838;28;20021;-67
2022/02/21 20:03:11;;;;;;;3.28;1.35;;;;;;;;;;5053306;28;20379;-67
2022/02/21 20:05:38;;;;;;;4.30;1.13;;;;;;;;;;5053427;28;20070;-67
2022/02/21 20:08:05;;;;;;;2.53;1.55;;;;;;;;;;5052532;28;20028;-67
2022/02/21 20:10:31;;;;;;;2.67;1.20;;;;;;;;;;5053466;28;20405;-66
2022/02/21 20:12:58;;;;;;;7.28;1.52;;;;;;;;;;5052053;28;20040;-67
2022/02/21 20:15:25;;;;;;;4.63;1.70;;;;;;;;;;5048022;28;20383;-67
2022/02/21 20:17:51;;;;;;;7.18;1.42;;;;;;;;;;5048098;28;20036;-67
2022/02/21 20:20:18;;;;;;;3.92;1.60;;;;;;;;;;5047821;28;20029;-68
2022/02/21 20:22:47;;;;;;;6.35;1.73;;;;;;;;;;5048076;28;20025;-67
2022/02/21 20:25:13;;;;;;;2.92;1.55;;;;;;;;;;5052732;28;20395;-67
2022/02/21 20:27:41;;;;;;;5.15;1.10;;;;;;;;;;5052931;28;20029;-67
2022/02/21 20:30:09;;;;;;;3.92;1.40;;;;;;;;;;5053162;28;20483;-68
2022/02/21 20:32:35;;;;;;;4.90;1.60;;;;;;;;;;5052987;28;20036;-67
2022/02/21 20:35:02;;;;;;;2.97;1.58;;;;;;;;;;5052382;28;20033;-67
2022/02/21 20:37:29;;;;;;;3.33;1.40;;;;;;;;;;5047642;28;20037;-67
2022/02/21 20:39:55;;;;;;;6.50;1.90;;;;;;;;;;5047557;28;20060;-67
2022/02/21 20:42:22;;;;;;;4.32;1.65;;;;;;;;;;5047706;28;20061;-67
2022/02/21 20:44:51;;;;;;;2.78;1.50;;;;;;;;;;5045816;28;20025;-67
2022/02/21 20:47:18;;;;;;;8.73;1.40;;;;;;;;;;5052903;28;20506;-67
2022/02/21 20:49:44;;;;;;;3.35;1.30;;;;;;;;;;5052394;28;20029;-67
2022/02/21 20:52:15;;;;;;;5.55;1.42;;;;;;;;;;5052813;28;20086;-67
2022/02/21 20:54:42;;;;;;;3.47;1.50;;;;;;;;;;5052927;28;20027;-68
2022/02/21 20:57:09;;;;;;;4.50;1.67;;;;;;;;;;5052675;28;20069;-67
2022/02/21 20:59:35;;;;;;;6.65;1.70;;;;;;;;;;5046557;28;20048;-67
2022/02/21 21:02:02;;;;;;;3.30;1.83;;;;;;;;;;5047165;28;20471;-67
2022/02/21 21:04:32;;;;;;;4.03;1.77;;;;;;;;;;5047509;28;20091;-68
2022/02/21 21:06:58;;;;;;;5.78;1.50;;;;;;;;;;5047318;28;20047;-68
2022/02/21 21:09:25;;;;;;;4.03;1.50;;;;;;;;;;5051362;28;20471;-67
2022/02/21 21:11:52;;;;;;;7.38;1.52;;;;;;;;;;5052500;28;20041;-67
2022/02/21 21:14:19;;;;;;;2.50;1.30;;;;;;;;;;5051891;28;20024;-67
2022/02/21 21:16:46;;;;;;;4.40;1.50;;;;;;;;;;5052460;28;20036;-67
2022/02/21 21:19:13;;;;;;;15.93;1.63;;;;;;;;;;5051547;28;20111;-67
2022/02/21 21:21:40;;;;;;;6.97;1.55;;;;;;;;;;5047124;28;20029;-68
2022/02/21 21:24:06;;;;;;;4.07;1.45;;;;;;;;;;5047050;28;20074;-68
2022/02/21 21:26:34;;;;;;;4.50;1.67;;;;;;;;;;5046806;28;20021;-68
2022/02/21 21:29:01;;;;;;;8.07;1.98;;;;;;;;;;5046461;28;20789;-67
2022/02/21 21:31:28;;;;;;;6.22;1.42;;;;;;;;;;5050524;28;20021;-67
2022/02/21 21:33:54;;;;;;;4.78;1.80;;;;;;;;;;5052008;28;20064;-68
2022/02/21 21:36:21;;;;;;;5.22;1.38;;;;;;;;;;5052008;28;20382;-67
2022/02/21 21:38:48;;;;;;;3.90;1.40;;;;;;;;;;5051830;28;20035;-67
2022/02/21 21:41:14;;;;;;;4.10;1.48;;;;;;;;;;5052185;28;20466;-67
2022/02/21 21:43:41;;;;;;;5.65;1.40;;;;;;;;;;5047469;28;20036;-67
2022/02/21 21:46:08;;;;;;;5.13;1.20;;;;;;;;;;5047035;28;20051;-67
2022/02/21 21:48:35;;;;;;;5.20;1.70;;;;;;;;;;5046031;28;20566;-67
2022/02/21 21:51:01;;;;;;;3.72;1.55;;;;;;;;;;5046519;28;20031;-68
2022/02/21 21:53:28;;;;;;;7.15;1.55;;;;;;;;;;5050203;28;20486;-67
2022/02/21 21:55:55;;;;;;;3.35;1.05;;;;;;;;;;5051965;28;20025;-67
2022/02/21 21:58:23;;;;;;;2.78;1.35;;;;;;;;;;5051723;28;20037;-68
2022/02/21 22:00:49;;;;;;;4.22;1.50;;;;;;;;;;5051871;28;20021;-68
2022/02/21 22:03:16;;;;;;;2.83;1.20;;;;;;;;;;5051805;28;20021;-68
2022/02/21 22:05:43;;;;;;;5.32;1.13;;;;;;;;;;5047569;28;20100;-68
2022/02/21 22:08:09;;;;;;;4.05;1.30;;;;;;;;;;5046143;28;20017;-67
2022/02/21 22:10:36;;;;;;;3.97;1.35;;;;;;;;;;5046019;28;20424;-67
2022/02/21 22:13:03;;;;;;;6.28;1.30;;;;;;;;;;5046329;28;20036;-67
2022/02/21 22:15:30;;;;;;;3.28;1.38;;;;;;;;;;5049487;28;20055;-68
2022/02/21 22:17:57;;;;;;;8.52;1.52;;;;;;;;;;5051721;28;20018;-67
2022/02/21 22:20:23;;;;;;;7.53;1.38;;;;;;;;;;5051049;28;20617;-67
2022/02/21 22:22:50;;;;;;;8.07;1.40;;;;;;;;;;5051699;28;20096;-68
2022/02/21 22:25:17;;;;;;;5.93;1.33;;;;;;;;;;5051708;28;20044;-67
2022/02/21 22:27:44;;;;;;;7.00;1.52;;;;;;;;;;5048155;28;20029;-67